Main page
METAR-TAF:

METAR-TAF

Airports :

Morrisville–Stowe State Airport

Morrisville, Vermont, United States

latitude: 44-32-10N, longitude: 072-36-58W, elevation: 731 ft

Current weather observation

The report was made 12 minutes ago, at 18:10 UTC
Wind 7 mph from the South/Southwest
Temperature 34°F
Humidity 80%
Pressure 29.20 in. Hg
Visibility: 1.75 miles
Overcast at a height of 1700 ft
light snow, mist

METAR: KMVL 271810Z AUTO 21006KT 1 3/4SM -SN BR OVC017 01/M02 A2920 RMK AO2 P0000 T00061017

Time: 13:22 (18:22 UTC)


TAF: missing

Weather observations and forecasts of more than 4000 airports (METAR and TAF reports).

The available stations are represented by yellow and red dots on the map.

Hover mouse over dot to see the name of the station.

Then click to see weather observations and forecasts.

To change the map : click on the green buttons with a black cross to zoom in, on the green button with a dash to zoom out, or on the green arrows for adjacent maps.


METAR-TAF: